sensor_id;sensor_type;location;lat;lon;timestamp;P1;durP1;ratioP1;P2;durP2;ratioP2
69207;SDS011;56321;47.662;8.878;2022-07-18T00:01:48;6.00;;;2.50;;
69207;SDS011;56321;47.662;8.878;2022-07-18T00:04:13;5.60;;;2.33;;
69207;SDS011;56321;47.662;8.878;2022-07-18T00:06:39;5.90;;;2.85;;
69207;SDS011;56321;47.662;8.878;2022-07-18T00:09:04;5.40;;;2.30;;
69207;SDS011;56321;47.662;8.878;2022-07-18T00:11:30;6.70;;;2.57;;
69207;SDS011;56321;47.662;8.878;2022-07-18T00:13:55;7.97;;;2.60;;
69207;SDS011;56321;47.662;8.878;2022-07-18T00:16:21;5.87;;;2.40;;
69207;SDS011;56321;47.662;8.878;2022-07-18T00:18:48;6.65;;;2.65;;
69207;SDS011;56321;47.662;8.878;2022-07-18T00:21:14;5.47;;;2.20;;
69207;SDS011;56321;47.662;8.878;2022-07-18T00:23:39;5.90;;;2.70;;
69207;SDS011;56321;47.662;8.878;2022-07-18T00:26:04;5.97;;;2.40;;
69207;SDS011;56321;47.662;8.878;2022-07-18T00:28:30;6.33;;;2.40;;
69207;SDS011;56321;47.662;8.878;2022-07-18T00:30:55;6.30;;;2.27;;
69207;SDS011;56321;47.662;8.878;2022-07-18T00:33:21;6.00;;;2.33;;
69207;SDS011;56321;47.662;8.878;2022-07-18T00:35:46;5.20;;;2.50;;
69207;SDS011;56321;47.662;8.878;2022-07-18T00:38:12;6.30;;;2.80;;
69207;SDS011;56321;47.662;8.878;2022-07-18T00:40:37;5.97;;;2.40;;
69207;SDS011;56321;47.662;8.878;2022-07-18T00:43:02;5.93;;;2.30;;
69207;SDS011;56321;47.662;8.878;2022-07-18T00:45:28;5.93;;;2.37;;
69207;SDS011;56321;47.662;8.878;2022-07-18T00:47:53;5.40;;;2.30;;
69207;SDS011;56321;47.662;8.878;2022-07-18T00:50:19;5.40;;;2.37;;
69207;SDS011;56321;47.662;8.878;2022-07-18T00:52:46;5.20;;;2.20;;
69207;SDS011;56321;47.662;8.878;2022-07-18T00:55:12;5.95;;;2.60;;
69207;SDS011;56321;47.662;8.878;2022-07-18T00:57:37;6.07;;;2.20;;
69207;SDS011;56321;47.662;8.878;2022-07-18T01:00:05;5.95;;;2.60;;
69207;SDS011;56321;47.662;8.878;2022-07-18T01:02:50;7.07;;;2.65;;
69207;SDS011;56321;47.662;8.878;2022-07-18T01:05:15;7.07;;;2.40;;
69207;SDS011;56321;47.662;8.878;2022-07-18T01:07:40;6.20;;;2.57;;
69207;SDS011;56321;47.662;8.878;2022-07-18T01:10:06;6.43;;;2.47;;
69207;SDS011;56321;47.662;8.878;2022-07-18T01:12:32;6.33;;;2.23;;
69207;SDS011;56321;47.662;8.878;2022-07-18T01:14:58;5.85;;;2.15;;
69207;SDS011;56321;47.662;8.878;2022-07-18T01:17:23;6.20;;;2.57;;
69207;SDS011;56321;47.662;8.878;2022-07-18T01:19:49;5.20;;;2.10;;
69207;SDS011;56321;47.662;8.878;2022-07-18T01:22:16;5.87;;;2.30;;
69207;SDS011;56321;47.662;8.878;2022-07-18T01:24:43;5.00;;;2.10;;
69207;SDS011;56321;47.662;8.878;2022-07-18T01:27:12;5.85;;;2.15;;
69207;SDS011;56321;47.662;8.878;2022-07-18T01:29:39;6.00;;;2.30;;
69207;SDS011;56321;47.662;8.878;2022-07-18T01:32:07;5.53;;;2.38;;
69207;SDS011;56321;47.662;8.878;2022-07-18T01:34:33;7.03;;;2.20;;
69207;SDS011;56321;47.662;8.878;2022-07-18T01:36:59;5.30;;;2.20;;
69207;SDS011;56321;47.662;8.878;2022-07-18T01:39:25;6.07;;;2.07;;
69207;SDS011;56321;47.662;8.878;2022-07-18T01:41:54;5.55;;;1.95;;
69207;SDS011;56321;47.662;8.878;2022-07-18T01:44:21;5.00;;;2.03;;
69207;SDS011;56321;47.662;8.878;2022-07-18T01:46:46;5.80;;;2.30;;
69207;SDS011;56321;47.662;8.878;2022-07-18T01:49:11;6.67;;;2.10;;
69207;SDS011;56321;47.662;8.878;2022-07-18T01:51:37;5.90;;;2.30;;
69207;SDS011;56321;47.662;8.878;2022-07-18T01:54:02;6.10;;;2.27;;
69207;SDS011;56321;47.662;8.878;2022-07-18T01:56:27;6.10;;;2.17;;
69207;SDS011;56321;47.662;8.878;2022-07-18T01:58:53;5.53;;;2.10;;
69207;SDS011;56321;47.662;8.878;2022-07-18T02:01:19;5.40;;;2.10;;
69207;SDS011;56321;47.662;8.878;2022-07-18T02:03:44;5.63;;;2.10;;
69207;SDS011;56321;47.662;8.878;2022-07-18T02:06:10;6.10;;;2.30;;
69207;SDS011;56321;47.662;8.878;2022-07-18T02:08:35;5.40;;;2.10;;
69207;SDS011;56321;47.662;8.878;2022-07-18T02:11:00;5.30;;;2.10;;
69207;SDS011;56321;47.662;8.878;2022-07-18T02:13:26;6.80;;;2.10;;
69207;SDS011;56321;47.662;8.878;2022-07-18T02:15:51;5.93;;;2.30;;
69207;SDS011;56321;47.662;8.878;2022-07-18T02:18:20;5.23;;;2.17;;
69207;SDS011;56321;47.662;8.878;2022-07-18T02:20:45;5.30;;;2.15;;
69207;SDS011;56321;47.662;8.878;2022-07-18T02:23:11;6.50;;;2.23;;
69207;SDS011;56321;47.662;8.878;2022-07-18T02:25:36;6.30;;;2.40;;
69207;SDS011;56321;47.662;8.878;2022-07-18T02:28:03;6.00;;;2.40;;
69207;SDS011;56321;47.662;8.878;2022-07-18T02:30:29;5.50;;;2.30;;
69207;SDS011;56321;47.662;8.878;2022-07-18T02:32:54;5.50;;;2.07;;
69207;SDS011;56321;47.662;8.878;2022-07-18T02:35:20;5.40;;;2.23;;
69207;SDS011;56321;47.662;8.878;2022-07-18T02:37:45;5.75;;;2.00;;
69207;SDS011;56321;47.662;8.878;2022-07-18T02:40:11;5.53;;;2.23;;
69207;SDS011;56321;47.662;8.878;2022-07-18T02:42:37;5.03;;;2.00;;
69207;SDS011;56321;47.662;8.878;2022-07-18T02:45:05;5.90;;;2.33;;
69207;SDS011;56321;47.662;8.878;2022-07-18T02:47:31;6.10;;;2.40;;
69207;SDS011;56321;47.662;8.878;2022-07-18T02:49:57;5.80;;;2.20;;
69207;SDS011;56321;47.662;8.878;2022-07-18T02:52:22;5.43;;;2.13;;
69207;SDS011;56321;47.662;8.878;2022-07-18T02:54:48;5.18;;;2.20;;
69207;SDS011;56321;47.662;8.878;2022-07-18T02:57:13;5.57;;;2.30;;
69207;SDS011;56321;47.662;8.878;2022-07-18T02:59:38;5.67;;;2.03;;
69207;SDS011;56321;47.662;8.878;2022-07-18T03:02:04;6.53;;;2.30;;
69207;SDS011;56321;47.662;8.878;2022-07-18T03:04:30;6.30;;;2.40;;
69207;SDS011;56321;47.662;8.878;2022-07-18T03:06:56;6.05;;;2.20;;
69207;SDS011;56321;47.662;8.878;2022-07-18T03:09:21;5.83;;;2.20;;
69207;SDS011;56321;47.662;8.878;2022-07-18T03:11:47;5.53;;;2.20;;
69207;SDS011;56321;47.662;8.878;2022-07-18T03:14:13;6.37;;;2.53;;
69207;SDS011;56321;47.662;8.878;2022-07-18T03:16:38;6.17;;;2.43;;
69207;SDS011;56321;47.662;8.878;2022-07-18T03:19:04;5.95;;;2.20;;
69207;SDS011;56321;47.662;8.878;2022-07-18T03:21:29;5.27;;;2.10;;
69207;SDS011;56321;47.662;8.878;2022-07-18T03:23:55;5.20;;;2.20;;
69207;SDS011;56321;47.662;8.878;2022-07-18T03:26:21;5.88;;;2.20;;
69207;SDS011;56321;47.662;8.878;2022-07-18T03:28:46;5.20;;;2.03;;
69207;SDS011;56321;47.662;8.878;2022-07-18T03:31:11;5.87;;;2.30;;
69207;SDS011;56321;47.662;8.878;2022-07-18T03:33:37;5.83;;;2.20;;
69207;SDS011;56321;47.662;8.878;2022-07-18T03:36:03;5.88;;;2.10;;
69207;SDS011;56321;47.662;8.878;2022-07-18T03:38:29;5.37;;;1.90;;
69207;SDS011;56321;47.662;8.878;2022-07-18T03:40:54;5.97;;;2.27;;
69207;SDS011;56321;47.662;8.878;2022-07-18T03:43:20;5.55;;;2.17;;
69207;SDS011;56321;47.662;8.878;2022-07-18T03:45:46;5.43;;;2.30;;
69207;SDS011;56321;47.662;8.878;2022-07-18T03:48:12;5.55;;;2.10;;
69207;SDS011;56321;47.662;8.878;2022-07-18T03:50:37;6.17;;;2.30;;
69207;SDS011;56321;47.662;8.878;2022-07-18T03:53:03;6.20;;;2.50;;
69207;SDS011;56321;47.662;8.878;2022-07-18T03:55:28;9.30;;;2.60;;
69207;SDS011;56321;47.662;8.878;2022-07-18T03:57:53;5.75;;;2.13;;
69207;SDS011;56321;47.662;8.878;2022-07-18T04:00:19;5.53;;;2.23;;
69207;SDS011;56321;47.662;8.878;2022-07-18T04:02:45;5.60;;;2.23;;
69207;SDS011;56321;47.662;8.878;2022-07-18T04:05:12;6.20;;;2.50;;
69207;SDS011;56321;47.662;8.878;2022-07-18T04:07:38;5.95;;;2.28;;
69207;SDS011;56321;47.662;8.878;2022-07-18T04:10:04;6.77;;;2.23;;
69207;SDS011;56321;47.662;8.878;2022-07-18T04:12:31;6.10;;;2.40;;
69207;SDS011;56321;47.662;8.878;2022-07-18T04:14:56;5.83;;;2.60;;
69207;SDS011;56321;47.662;8.878;2022-07-18T04:17:22;6.13;;;2.47;;
69207;SDS011;56321;47.662;8.878;2022-07-18T04:19:47;6.20;;;2.60;;
69207;SDS011;56321;47.662;8.878;2022-07-18T04:22:13;5.63;;;2.40;;
69207;SDS011;56321;47.662;8.878;2022-07-18T04:24:38;6.47;;;2.50;;
69207;SDS011;56321;47.662;8.878;2022-07-18T04:27:04;6.50;;;2.67;;
69207;SDS011;56321;47.662;8.878;2022-07-18T04:29:29;6.50;;;2.57;;
69207;SDS011;56321;47.662;8.878;2022-07-18T04:31:56;5.88;;;2.63;;
69207;SDS011;56321;47.662;8.878;2022-07-18T04:34:22;6.75;;;2.35;;
69207;SDS011;56321;47.662;8.878;2022-07-18T04:36:48;6.07;;;2.40;;
69207;SDS011;56321;47.662;8.878;2022-07-18T04:39:13;6.13;;;2.47;;
69207;SDS011;56321;47.662;8.878;2022-07-18T04:41:38;5.80;;;2.30;;
69207;SDS011;56321;47.662;8.878;2022-07-18T04:44:04;6.10;;;2.30;;
69207;SDS011;56321;47.662;8.878;2022-07-18T04:46:29;6.93;;;2.40;;
69207;SDS011;56321;47.662;8.878;2022-07-18T04:48:55;5.13;;;2.23;;
69207;SDS011;56321;47.662;8.878;2022-07-18T04:51:20;5.83;;;2.50;;
69207;SDS011;56321;47.662;8.878;2022-07-18T04:53:46;7.13;;;3.00;;
69207;SDS011;56321;47.662;8.878;2022-07-18T04:56:11;5.70;;;2.30;;
69207;SDS011;56321;47.662;8.878;2022-07-18T04:58:37;7.53;;;2.45;;
69207;SDS011;56321;47.662;8.878;2022-07-18T05:01:02;5.90;;;2.40;;
69207;SDS011;56321;47.662;8.878;2022-07-18T05:03:27;6.20;;;2.40;;
69207;SDS011;56321;47.662;8.878;2022-07-18T05:05:53;7.87;;;2.97;;
69207;SDS011;56321;47.662;8.878;2022-07-18T05:08:18;6.30;;;2.97;;
69207;SDS011;56321;47.662;8.878;2022-07-18T05:10:44;6.63;;;2.93;;
69207;SDS011;56321;47.662;8.878;2022-07-18T05:13:09;6.37;;;2.90;;
69207;SDS011;56321;47.662;8.878;2022-07-18T05:15:34;7.40;;;3.43;;
69207;SDS011;56321;47.662;8.878;2022-07-18T05:18:00;7.03;;;3.00;;
69207;SDS011;56321;47.662;8.878;2022-07-18T05:20:25;7.87;;;3.60;;
69207;SDS011;56321;47.662;8.878;2022-07-18T05:22:51;7.05;;;3.10;;
69207;SDS011;56321;47.662;8.878;2022-07-18T05:25:18;7.82;;;3.33;;
69207;SDS011;56321;47.662;8.878;2022-07-18T05:27:43;6.88;;;3.05;;
69207;SDS011;56321;47.662;8.878;2022-07-18T05:30:10;6.83;;;3.23;;
69207;SDS011;56321;47.662;8.878;2022-07-18T05:32:38;6.70;;;3.22;;
69207;SDS011;56321;47.662;8.878;2022-07-18T05:35:05;7.63;;;2.88;;
69207;SDS011;56321;47.662;8.878;2022-07-18T05:37:31;6.47;;;2.63;;
69207;SDS011;56321;47.662;8.878;2022-07-18T05:39:56;7.10;;;3.13;;
69207;SDS011;56321;47.662;8.878;2022-07-18T05:42:21;6.83;;;2.90;;
69207;SDS011;56321;47.662;8.878;2022-07-18T05:44:47;6.80;;;3.00;;
69207;SDS011;56321;47.662;8.878;2022-07-18T05:47:12;6.60;;;2.90;;
69207;SDS011;56321;47.662;8.878;2022-07-18T05:49:38;6.65;;;2.92;;
69207;SDS011;56321;47.662;8.878;2022-07-18T05:52:04;6.00;;;2.70;;
69207;SDS011;56321;47.662;8.878;2022-07-18T05:54:29;6.05;;;2.63;;
69207;SDS011;56321;47.662;8.878;2022-07-18T05:56:55;6.77;;;2.70;;
69207;SDS011;56321;47.662;8.878;2022-07-18T05:59:20;6.23;;;2.57;;
69207;SDS011;56321;47.662;8.878;2022-07-18T06:01:46;5.95;;;2.80;;
69207;SDS011;56321;47.662;8.878;2022-07-18T06:04:12;7.27;;;2.90;;
69207;SDS011;56321;47.662;8.878;2022-07-18T06:06:38;6.22;;;2.85;;
69207;SDS011;56321;47.662;8.878;2022-07-18T06:09:04;7.50;;;2.90;;
69207;SDS011;56321;47.662;8.878;2022-07-18T06:11:30;6.60;;;3.00;;
69207;SDS011;56321;47.662;8.878;2022-07-18T06:13:55;8.23;;;2.92;;
69207;SDS011;56321;47.662;8.878;2022-07-18T06:16:21;7.63;;;2.53;;
69207;SDS011;56321;47.662;8.878;2022-07-18T06:18:46;6.70;;;2.80;;
69207;SDS011;56321;47.662;8.878;2022-07-18T06:21:12;6.77;;;2.83;;
69207;SDS011;56321;47.662;8.878;2022-07-18T06:23:37;5.97;;;2.90;;
69207;SDS011;56321;47.662;8.878;2022-07-18T06:26:03;6.07;;;2.80;;
69207;SDS011;56321;47.662;8.878;2022-07-18T06:28:29;6.70;;;2.60;;
69207;SDS011;56321;47.662;8.878;2022-07-18T06:30:55;6.13;;;2.78;;
69207;SDS011;56321;47.662;8.878;2022-07-18T06:33:20;6.03;;;2.77;;
69207;SDS011;56321;47.662;8.878;2022-07-18T06:35:46;5.37;;;2.50;;
69207;SDS011;56321;47.662;8.878;2022-07-18T06:38:12;6.15;;;2.80;;
69207;SDS011;56321;47.662;8.878;2022-07-18T06:40:38;6.43;;;2.65;;
69207;SDS011;56321;47.662;8.878;2022-07-18T06:43:05;6.25;;;2.50;;
69207;SDS011;56321;47.662;8.878;2022-07-18T06:45:31;5.60;;;2.60;;
69207;SDS011;56321;47.662;8.878;2022-07-18T06:47:57;5.90;;;2.90;;
69207;SDS011;56321;47.662;8.878;2022-07-18T06:50:22;6.00;;;2.80;;
69207;SDS011;56321;47.662;8.878;2022-07-18T06:52:47;7.53;;;2.70;;
69207;SDS011;56321;47.662;8.878;2022-07-18T06:55:13;6.30;;;2.73;;
69207;SDS011;56321;47.662;8.878;2022-07-18T06:57:38;6.70;;;3.03;;
69207;SDS011;56321;47.662;8.878;2022-07-18T07:00:05;7.18;;;3.25;;
69207;SDS011;56321;47.662;8.878;2022-07-18T07:02:33;5.70;;;2.80;;
69207;SDS011;56321;47.662;8.878;2022-07-18T07:04:59;7.87;;;3.20;;
69207;SDS011;56321;47.662;8.878;2022-07-18T07:07:24;10.70;;;2.80;;
69207;SDS011;56321;47.662;8.878;2022-07-18T07:09:49;6.23;;;3.07;;
69207;SDS011;56321;47.662;8.878;2022-07-18T07:12:15;6.00;;;2.92;;
69207;SDS011;56321;47.662;8.878;2022-07-18T07:14:41;7.55;;;2.97;;
69207;SDS011;56321;47.662;8.878;2022-07-18T07:17:07;5.80;;;2.77;;
69207;SDS011;56321;47.662;8.878;2022-07-18T07:19:32;7.23;;;3.03;;
69207;SDS011;56321;47.662;8.878;2022-07-18T07:21:57;6.10;;;3.03;;
69207;SDS011;56321;47.662;8.878;2022-07-18T07:24:23;6.33;;;3.10;;
69207;SDS011;56321;47.662;8.878;2022-07-18T07:26:48;7.90;;;3.37;;
69207;SDS011;56321;47.662;8.878;2022-07-18T07:29:14;6.33;;;3.30;;
69207;SDS011;56321;47.662;8.878;2022-07-18T07:31:40;7.63;;;3.20;;
69207;SDS011;56321;47.662;8.878;2022-07-18T07:34:07;7.38;;;3.00;;
69207;SDS011;56321;47.662;8.878;2022-07-18T07:36:33;7.00;;;3.20;;
69207;SDS011;56321;47.662;8.878;2022-07-18T07:38:59;6.40;;;3.03;;
69207;SDS011;56321;47.662;8.878;2022-07-18T07:41:24;6.90;;;3.47;;
69207;SDS011;56321;47.662;8.878;2022-07-18T07:43:49;6.33;;;3.27;;
69207;SDS011;56321;47.662;8.878;2022-07-18T07:46:15;6.97;;;3.00;;
69207;SDS011;56321;47.662;8.878;2022-07-18T07:48:40;6.07;;;3.07;;
69207;SDS011;56321;47.662;8.878;2022-07-18T07:51:05;6.80;;;2.87;;
69207;SDS011;56321;47.662;8.878;2022-07-18T07:53:31;7.05;;;3.50;;
69207;SDS011;56321;47.662;8.878;2022-07-18T07:55:56;6.60;;;3.27;;
69207;SDS011;56321;47.662;8.878;2022-07-18T07:58:22;6.27;;;2.93;;
69207;SDS011;56321;47.662;8.878;2022-07-18T08:00:47;7.40;;;3.87;;
69207;SDS011;56321;47.662;8.878;2022-07-18T08:03:13;6.30;;;3.70;;
69207;SDS011;56321;47.662;8.878;2022-07-18T08:05:43;7.27;;;3.70;;
69207;SDS011;56321;47.662;8.878;2022-07-18T08:08:13;6.70;;;3.65;;
69207;SDS011;56321;47.662;8.878;2022-07-18T08:10:40;7.13;;;3.85;;
69207;SDS011;56321;47.662;8.878;2022-07-18T08:13:06;6.63;;;3.75;;
69207;SDS011;56321;47.662;8.878;2022-07-18T08:15:31;7.10;;;3.40;;
69207;SDS011;56321;47.662;8.878;2022-07-18T08:17:56;7.40;;;3.67;;
69207;SDS011;56321;47.662;8.878;2022-07-18T08:20:22;6.65;;;3.60;;
69207;SDS011;56321;47.662;8.878;2022-07-18T08:23:05;6.15;;;3.00;;
69207;SDS011;56321;47.662;8.878;2022-07-18T08:25:33;7.37;;;3.67;;
69207;SDS011;56321;47.662;8.878;2022-07-18T08:28:02;6.78;;;3.55;;
69207;SDS011;56321;47.662;8.878;2022-07-18T08:30:28;7.60;;;3.30;;
69207;SDS011;56321;47.662;8.878;2022-07-18T08:32:55;6.88;;;3.30;;
69207;SDS011;56321;47.662;8.878;2022-07-18T08:35:20;6.63;;;3.47;;
69207;SDS011;56321;47.662;8.878;2022-07-18T08:37:46;6.13;;;3.33;;
69207;SDS011;56321;47.662;8.878;2022-07-18T08:40:11;7.10;;;2.93;;
69207;SDS011;56321;47.662;8.878;2022-07-18T08:42:37;5.78;;;3.30;;
69207;SDS011;56321;47.662;8.878;2022-07-18T08:45:03;6.65;;;3.42;;
69207;SDS011;56321;47.662;8.878;2022-07-18T08:47:29;6.03;;;3.10;;
69207;SDS011;56321;47.662;8.878;2022-07-18T08:49:55;6.30;;;3.53;;
69207;SDS011;56321;47.662;8.878;2022-07-18T08:52:21;7.17;;;3.30;;
69207;SDS011;56321;47.662;8.878;2022-07-18T08:54:46;6.28;;;3.38;;
69207;SDS011;56321;47.662;8.878;2022-07-18T08:57:14;6.60;;;3.47;;
69207;SDS011;56321;47.662;8.878;2022-07-18T08:59:40;6.27;;;3.50;;
69207;SDS011;56321;47.662;8.878;2022-07-18T09:02:05;7.13;;;3.58;;
69207;SDS011;56321;47.662;8.878;2022-07-18T09:04:35;6.20;;;3.47;;
69207;SDS011;56321;47.662;8.878;2022-07-18T09:07:03;6.60;;;3.50;;
69207;SDS011;56321;47.662;8.878;2022-07-18T09:09:30;8.00;;;4.00;;
69207;SDS011;56321;47.662;8.878;2022-07-18T09:11:56;6.82;;;3.80;;
69207;SDS011;56321;47.662;8.878;2022-07-18T09:14:45;6.30;;;3.60;;
69207;SDS011;56321;47.662;8.878;2022-07-18T09:17:14;6.20;;;3.43;;
69207;SDS011;56321;47.662;8.878;2022-07-18T09:19:56;6.70;;;3.80;;
69207;SDS011;56321;47.662;8.878;2022-07-18T09:22:34;6.47;;;3.45;;
69207;SDS011;56321;47.662;8.878;2022-07-18T09:30:14;6.63;;;3.90;;
69207;SDS011;56321;47.662;8.878;2022-07-18T09:35:50;6.38;;;3.75;;
69207;SDS011;56321;47.662;8.878;2022-07-18T09:38:21;6.88;;;3.60;;
69207;SDS011;56321;47.662;8.878;2022-07-18T09:40:49;6.85;;;3.50;;
69207;SDS011;56321;47.662;8.878;2022-07-18T09:43:16;6.50;;;3.93;;
69207;SDS011;56321;47.662;8.878;2022-07-18T09:45:51;6.05;;;3.60;;
69207;SDS011;56321;47.662;8.878;2022-07-18T09:48:25;6.32;;;4.00;;
69207;SDS011;56321;47.662;8.878;2022-07-18T09:53:38;7.13;;;4.00;;
69207;SDS011;56321;47.662;8.878;2022-07-18T09:56:14;8.00;;;4.03;;
69207;SDS011;56321;47.662;8.878;2022-07-18T09:58:52;6.53;;;3.80;;
69207;SDS011;56321;47.662;8.878;2022-07-18T10:01:19;6.85;;;3.90;;
69207;SDS011;56321;47.662;8.878;2022-07-18T10:03:45;6.18;;;3.90;;
69207;SDS011;56321;47.662;8.878;2022-07-18T10:06:10;6.30;;;3.80;;
69207;SDS011;56321;47.662;8.878;2022-07-18T10:08:36;6.13;;;3.50;;
69207;SDS011;56321;47.662;8.878;2022-07-18T10:11:02;7.70;;;3.50;;
69207;SDS011;56321;47.662;8.878;2022-07-18T10:13:30;6.20;;;3.08;;
69207;SDS011;56321;47.662;8.878;2022-07-18T10:15:56;5.95;;;3.00;;
69207;SDS011;56321;47.662;8.878;2022-07-18T10:18:26;5.97;;;3.10;;
69207;SDS011;56321;47.662;8.878;2022-07-18T10:23:29;6.05;;;3.60;;
69207;SDS011;56321;47.662;8.878;2022-07-18T10:31:32;6.15;;;2.92;;
69207;SDS011;56321;47.662;8.878;2022-07-18T10:36:30;5.57;;;3.20;;
69207;SDS011;56321;47.662;8.878;2022-07-18T10:39:07;5.80;;;3.20;;
69207;SDS011;56321;47.662;8.878;2022-07-18T11:02:44;6.50;;;3.42;;
69207;SDS011;56321;47.662;8.878;2022-07-18T11:05:31;6.32;;;3.35;;
69207;SDS011;56321;47.662;8.878;2022-07-18T11:18:34;5.40;;;3.00;;
69207;SDS011;56321;47.662;8.878;2022-07-18T11:23:47;5.93;;;3.27;;
69207;SDS011;56321;47.662;8.878;2022-07-18T11:26:18;6.40;;;3.47;;
69207;SDS011;56321;47.662;8.878;2022-07-18T11:28:48;5.53;;;3.30;;
69207;SDS011;56321;47.662;8.878;2022-07-18T11:31:21;7.00;;;3.17;;
69207;SDS011;56321;47.662;8.878;2022-07-18T11:33:47;5.33;;;2.93;;
69207;SDS011;56321;47.662;8.878;2022-07-18T11:36:15;6.22;;;3.05;;
69207;SDS011;56321;47.662;8.878;2022-07-18T11:38:48;5.30;;;2.90;;
69207;SDS011;56321;47.662;8.878;2022-07-18T11:41:15;5.50;;;2.40;;
69207;SDS011;56321;47.662;8.878;2022-07-18T11:43:43;7.40;;;2.80;;
69207;SDS011;56321;47.662;8.878;2022-07-18T11:46:11;5.50;;;2.50;;
69207;SDS011;56321;47.662;8.878;2022-07-18T11:48:38;5.45;;;2.60;;
69207;SDS011;56321;47.662;8.878;2022-07-18T11:51:08;5.80;;;2.80;;
69207;SDS011;56321;47.662;8.878;2022-07-18T11:53:44;6.78;;;3.22;;
69207;SDS011;56321;47.662;8.878;2022-07-18T11:56:13;5.40;;;2.57;;
69207;SDS011;56321;47.662;8.878;2022-07-18T11:58:39;5.53;;;2.70;;
69207;SDS011;56321;47.662;8.878;2022-07-18T12:01:06;5.95;;;2.78;;
69207;SDS011;56321;47.662;8.878;2022-07-18T12:06:27;6.22;;;2.92;;
69207;SDS011;56321;47.662;8.878;2022-07-18T12:08:53;5.37;;;2.20;;
69207;SDS011;56321;47.662;8.878;2022-07-18T12:16:56;4.50;;;2.00;;
69207;SDS011;56321;47.662;8.878;2022-07-18T12:19:31;4.85;;;1.80;;
69207;SDS011;56321;47.662;8.878;2022-07-18T12:24:38;4.70;;;1.70;;
69207;SDS011;56321;47.662;8.878;2022-07-18T12:29:57;4.88;;;1.90;;
69207;SDS011;56321;47.662;8.878;2022-07-18T12:32:39;4.82;;;1.90;;
69207;SDS011;56321;47.662;8.878;2022-07-18T12:35:20;4.80;;;2.10;;
69207;SDS011;56321;47.662;8.878;2022-07-18T12:40:27;5.00;;;2.50;;
69207;SDS011;56321;47.662;8.878;2022-07-18T12:43:03;5.22;;;2.40;;
69207;SDS011;56321;47.662;8.878;2022-07-18T12:45:31;5.57;;;2.70;;
69207;SDS011;56321;47.662;8.878;2022-07-18T12:47:56;4.63;;;2.10;;
69207;SDS011;56321;47.662;8.878;2022-07-18T12:50:22;5.13;;;2.33;;
69207;SDS011;56321;47.662;8.878;2022-07-18T12:52:47;4.83;;;2.60;;
69207;SDS011;56321;47.662;8.878;2022-07-18T12:55:12;5.93;;;3.10;;
69207;SDS011;56321;47.662;8.878;2022-07-18T12:57:38;5.00;;;2.63;;
69207;SDS011;56321;47.662;8.878;2022-07-18T13:00:03;5.07;;;2.57;;
69207;SDS011;56321;47.662;8.878;2022-07-18T13:02:29;5.90;;;3.00;;
69207;SDS011;56321;47.662;8.878;2022-07-18T13:04:55;5.70;;;2.60;;
69207;SDS011;56321;47.662;8.878;2022-07-18T13:07:20;6.00;;;2.57;;
69207;SDS011;56321;47.662;8.878;2022-07-18T13:09:46;5.40;;;2.50;;
69207;SDS011;56321;47.662;8.878;2022-07-18T13:12:11;5.10;;;2.40;;
69207;SDS011;56321;47.662;8.878;2022-07-18T13:14:36;5.03;;;2.30;;
69207;SDS011;56321;47.662;8.878;2022-07-18T13:17:02;5.10;;;2.30;;
69207;SDS011;56321;47.662;8.878;2022-07-18T13:19:27;5.30;;;2.40;;
69207;SDS011;56321;47.662;8.878;2022-07-18T13:21:53;5.10;;;2.38;;
69207;SDS011;56321;47.662;8.878;2022-07-18T13:24:19;5.00;;;1.97;;
69207;SDS011;56321;47.662;8.878;2022-07-18T13:26:44;5.57;;;2.47;;
69207;SDS011;56321;47.662;8.878;2022-07-18T13:29:09;5.20;;;2.42;;
69207;SDS011;56321;47.662;8.878;2022-07-18T13:31:35;5.00;;;2.53;;
69207;SDS011;56321;47.662;8.878;2022-07-18T13:34:01;5.10;;;2.70;;
69207;SDS011;56321;47.662;8.878;2022-07-18T13:36:27;6.10;;;2.60;;
69207;SDS011;56321;47.662;8.878;2022-07-18T13:38:54;5.57;;;2.47;;
69207;SDS011;56321;47.662;8.878;2022-07-18T13:41:20;5.20;;;2.60;;
69207;SDS011;56321;47.662;8.878;2022-07-18T13:43:46;5.90;;;3.07;;
69207;SDS011;56321;47.662;8.878;2022-07-18T13:46:11;5.68;;;2.80;;
69207;SDS011;56321;47.662;8.878;2022-07-18T13:48:37;5.50;;;3.00;;
69207;SDS011;56321;47.662;8.878;2022-07-18T13:51:03;5.70;;;2.92;;
69207;SDS011;56321;47.662;8.878;2022-07-18T13:53:29;5.10;;;2.53;;
69207;SDS011;56321;47.662;8.878;2022-07-18T13:55:54;5.60;;;2.80;;
69207;SDS011;56321;47.662;8.878;2022-07-18T13:58:20;5.63;;;3.10;;
69207;SDS011;56321;47.662;8.878;2022-07-18T14:00:45;6.80;;;3.20;;
69207;SDS011;56321;47.662;8.878;2022-07-18T14:03:11;5.55;;;2.70;;
69207;SDS011;56321;47.662;8.878;2022-07-18T14:05:37;5.70;;;3.23;;
69207;SDS011;56321;47.662;8.878;2022-07-18T14:08:03;5.40;;;2.95;;
69207;SDS011;56321;47.662;8.878;2022-07-18T14:10:29;5.80;;;3.03;;
69207;SDS011;56321;47.662;8.878;2022-07-18T14:12:54;6.17;;;2.87;;
69207;SDS011;56321;47.662;8.878;2022-07-18T14:15:20;5.73;;;3.23;;
69207;SDS011;56321;47.662;8.878;2022-07-18T14:17:45;5.60;;;3.43;;
69207;SDS011;56321;47.662;8.878;2022-07-18T14:20:11;5.43;;;3.03;;
69207;SDS011;56321;47.662;8.878;2022-07-18T14:22:37;7.47;;;3.28;;
69207;SDS011;56321;47.662;8.878;2022-07-18T14:25:04;5.45;;;3.40;;
69207;SDS011;56321;47.662;8.878;2022-07-18T14:27:31;6.10;;;3.10;;
69207;SDS011;56321;47.662;8.878;2022-07-18T14:29:57;5.45;;;3.08;;
69207;SDS011;56321;47.662;8.878;2022-07-18T14:32:24;7.60;;;3.00;;
69207;SDS011;56321;47.662;8.878;2022-07-18T14:34:50;5.43;;;2.83;;
69207;SDS011;56321;47.662;8.878;2022-07-18T14:37:15;5.97;;;2.92;;
69207;SDS011;56321;47.662;8.878;2022-07-18T14:39:40;5.60;;;3.10;;
69207;SDS011;56321;47.662;8.878;2022-07-18T14:42:06;5.50;;;3.30;;
69207;SDS011;56321;47.662;8.878;2022-07-18T14:44:31;6.27;;;2.77;;
69207;SDS011;56321;47.662;8.878;2022-07-18T14:46:56;5.90;;;3.23;;
69207;SDS011;56321;47.662;8.878;2022-07-18T14:49:22;5.70;;;2.67;;
69207;SDS011;56321;47.662;8.878;2022-07-18T14:51:48;5.30;;;2.70;;
69207;SDS011;56321;47.662;8.878;2022-07-18T14:54:13;7.82;;;2.95;;
69207;SDS011;56321;47.662;8.878;2022-07-18T14:56:39;5.50;;;3.03;;
69207;SDS011;56321;47.662;8.878;2022-07-18T14:59:04;5.83;;;3.00;;
69207;SDS011;56321;47.662;8.878;2022-07-18T15:01:30;6.03;;;3.10;;
69207;SDS011;56321;47.662;8.878;2022-07-18T15:03:57;6.10;;;3.40;;
69207;SDS011;56321;47.662;8.878;2022-07-18T15:06:23;7.53;;;3.30;;
69207;SDS011;56321;47.662;8.878;2022-07-18T15:08:48;7.45;;;3.00;;
69207;SDS011;56321;47.662;8.878;2022-07-18T15:11:14;5.20;;;2.90;;
69207;SDS011;56321;47.662;8.878;2022-07-18T15:13:43;6.22;;;2.83;;
69207;SDS011;56321;47.662;8.878;2022-07-18T15:16:08;5.90;;;2.90;;
69207;SDS011;56321;47.662;8.878;2022-07-18T15:18:34;5.53;;;2.60;;
69207;SDS011;56321;47.662;8.878;2022-07-18T15:20:59;5.30;;;2.50;;
69207;SDS011;56321;47.662;8.878;2022-07-18T15:23:24;5.93;;;2.70;;
69207;SDS011;56321;47.662;8.878;2022-07-18T15:25:50;5.77;;;2.77;;
69207;SDS011;56321;47.662;8.878;2022-07-18T15:28:15;5.30;;;2.90;;
69207;SDS011;56321;47.662;8.878;2022-07-18T15:30:41;5.23;;;2.90;;
69207;SDS011;56321;47.662;8.878;2022-07-18T15:33:06;6.03;;;3.00;;
69207;SDS011;56321;47.662;8.878;2022-07-18T15:35:32;5.47;;;3.00;;
69207;SDS011;56321;47.662;8.878;2022-07-18T15:37:57;5.80;;;3.10;;
69207;SDS011;56321;47.662;8.878;2022-07-18T15:40:22;5.63;;;2.63;;
69207;SDS011;56321;47.662;8.878;2022-07-18T15:42:48;5.85;;;2.80;;
69207;SDS011;56321;47.662;8.878;2022-07-18T15:45:14;5.17;;;2.50;;
69207;SDS011;56321;47.662;8.878;2022-07-18T15:47:39;6.00;;;2.88;;
69207;SDS011;56321;47.662;8.878;2022-07-18T15:50:04;5.50;;;2.60;;
69207;SDS011;56321;47.662;8.878;2022-07-18T15:52:30;5.10;;;2.50;;
69207;SDS011;56321;47.662;8.878;2022-07-18T15:54:58;7.15;;;2.90;;
69207;SDS011;56321;47.662;8.878;2022-07-18T15:57:23;7.73;;;3.10;;